sensor_id;sensor_type;location;lat;lon;timestamp;pressure;altitude;pressure_sealevel;temperature;humidity
27958;BME280;15295;42.658;23.374;2024-03-17T00:00:26;94830.03;;;13.49;46.43
27958;BME280;15295;42.658;23.374;2024-03-17T00:02:51;94830.13;;;13.39;47.04
27958;BME280;15295;42.658;23.374;2024-03-17T00:05:23;94830.53;;;13.41;47.05
27958;BME280;15295;42.658;23.374;2024-03-17T00:07:48;94812.47;;;13.40;47.01
27958;BME280;15295;42.658;23.374;2024-03-17T00:10:14;94821.16;;;13.35;46.88
27958;BME280;15295;42.658;23.374;2024-03-17T00:12:40;94829.75;;;13.40;46.93
27958;BME280;15295;42.658;23.374;2024-03-17T00:15:06;94825.03;;;13.41;47.45
27958;BME280;15295;42.658;23.374;2024-03-17T00:17:33;94822.25;;;13.44;47.20
27958;BME280;15295;42.658;23.374;2024-03-17T00:20:02;94816.88;;;13.34;47.47
27958;BME280;15295;42.658;23.374;2024-03-17T00:22:33;94819.56;;;13.37;47.70
27958;BME280;15295;42.658;23.374;2024-03-17T00:25:02;94829.63;;;13.47;47.61
27958;BME280;15295;42.658;23.374;2024-03-17T00:27:28;94826.13;;;13.47;47.64
27958;BME280;15295;42.658;23.374;2024-03-17T00:29:54;94808.22;;;13.35;47.72
27958;BME280;15295;42.658;23.374;2024-03-17T00:32:19;94823.78;;;13.45;48.15
27958;BME280;15295;42.658;23.374;2024-03-17T00:34:45;94826.53;;;13.45;48.12
27958;BME280;15295;42.658;23.374;2024-03-17T00:37:10;94811.31;;;13.41;48.28
27958;BME280;15295;42.658;23.374;2024-03-17T00:39:36;94819.94;;;13.39;48.42
27958;BME280;15295;42.658;23.374;2024-03-17T00:42:01;94814.53;;;13.32;48.83
27958;BME280;15295;42.658;23.374;2024-03-17T00:44:27;94799.78;;;13.19;48.93
27958;BME280;15295;42.658;23.374;2024-03-17T00:46:52;94808.41;;;13.18;49.04
27958;BME280;15295;42.658;23.374;2024-03-17T00:49:18;94815.03;;;13.20;49.13
27958;BME280;15295;42.658;23.374;2024-03-17T00:51:43;94815.41;;;13.22;49.13
27958;BME280;15295;42.658;23.374;2024-03-17T00:54:09;94815.53;;;13.11;49.22
27958;BME280;15295;42.658;23.374;2024-03-17T00:56:34;94817.09;;;13.12;49.35
27958;BME280;15295;42.658;23.374;2024-03-17T00:59:00;94823.31;;;13.17;49.27
27958;BME280;15295;42.658;23.374;2024-03-17T01:01:25;94822.50;;;13.20;48.96
27958;BME280;15295;42.658;23.374;2024-03-17T01:03:51;94804.22;;;13.06;49.13
27958;BME280;15295;42.658;23.374;2024-03-17T01:06:20;94824.16;;;13.10;49.37
27958;BME280;15295;42.658;23.374;2024-03-17T01:08:46;94821.06;;;13.08;49.43
27958;BME280;15295;42.658;23.374;2024-03-17T01:11:17;94815.59;;;13.01;49.65
27958;BME280;15295;42.658;23.374;2024-03-17T01:13:47;94817.94;;;13.02;49.66
27958;BME280;15295;42.658;23.374;2024-03-17T01:16:13;94827.34;;;13.01;49.75
27958;BME280;15295;42.658;23.374;2024-03-17T01:18:39;94818.38;;;12.97;49.90
27958;BME280;15295;42.658;23.374;2024-03-17T01:21:06;94811.38;;;12.93;49.91
27958;BME280;15295;42.658;23.374;2024-03-17T01:23:36;94830.88;;;13.05;49.50
27958;BME280;15295;42.658;23.374;2024-03-17T01:26:08;94822.66;;;13.02;49.70
27958;BME280;15295;42.658;23.374;2024-03-17T01:28:34;94816.03;;;12.96;49.78
27958;BME280;15295;42.658;23.374;2024-03-17T01:30:59;94825.84;;;12.97;49.71
27958;BME280;15295;42.658;23.374;2024-03-17T01:33:25;94834.06;;;12.97;49.90
27958;BME280;15295;42.658;23.374;2024-03-17T01:35:50;94806.78;;;12.83;49.75
27958;BME280;15295;42.658;23.374;2024-03-17T01:38:16;94809.53;;;12.79;49.77
27958;BME280;15295;42.658;23.374;2024-03-17T01:40:41;94820.13;;;12.81;49.82
27958;BME280;15295;42.658;23.374;2024-03-17T01:43:10;94823.56;;;12.88;49.72
27958;BME280;15295;42.658;23.374;2024-03-17T01:45:45;94807.19;;;12.78;49.75
27958;BME280;15295;42.658;23.374;2024-03-17T01:48:15;94791.63;;;12.68;49.72
27958;BME280;15295;42.658;23.374;2024-03-17T01:50:42;94811.56;;;12.72;49.94
27958;BME280;15295;42.658;23.374;2024-03-17T01:53:10;94822.91;;;12.74;49.93
27958;BME280;15295;42.658;23.374;2024-03-17T01:55:40;94833.88;;;12.74;49.96
27958;BME280;15295;42.658;23.374;2024-03-17T01:58:06;94818.22;;;12.71;49.92
27958;BME280;15295;42.658;23.374;2024-03-17T02:00:36;94825.66;;;12.70;49.79
27958;BME280;15295;42.658;23.374;2024-03-17T02:03:06;94818.63;;;12.69;49.83
27958;BME280;15295;42.658;23.374;2024-03-17T02:05:32;94823.34;;;12.69;49.77
27958;BME280;15295;42.658;23.374;2024-03-17T02:07:59;94822.53;;;12.68;49.72
27958;BME280;15295;42.658;23.374;2024-03-17T02:10:25;94818.22;;;12.71;49.67
27958;BME280;15295;42.658;23.374;2024-03-17T02:12:51;94821.03;;;12.64;49.68
27958;BME280;15295;42.658;23.374;2024-03-17T02:15:16;94817.88;;;12.65;49.74
27958;BME280;15295;42.658;23.374;2024-03-17T02:17:44;94830.00;;;12.68;49.54
27958;BME280;15295;42.658;23.374;2024-03-17T02:20:09;94824.53;;;12.68;49.66
27958;BME280;15295;42.658;23.374;2024-03-17T02:22:39;94821.00;;;12.67;49.64
27958;BME280;15295;42.658;23.374;2024-03-17T02:25:07;94824.91;;;12.66;49.57
27958;BME280;15295;42.658;23.374;2024-03-17T02:27:35;94822.97;;;12.67;49.58
27958;BME280;15295;42.658;23.374;2024-03-17T02:30:02;94823.38;;;12.65;49.70
27958;BME280;15295;42.658;23.374;2024-03-17T02:32:28;94815.19;;;12.58;49.65
27958;BME280;15295;42.658;23.374;2024-03-17T02:34:53;94821.44;;;12.62;49.87
27958;BME280;15295;42.658;23.374;2024-03-17T02:37:20;94809.78;;;12.48;49.88
27958;BME280;15295;42.658;23.374;2024-03-17T02:39:45;94818.34;;;12.57;49.95
27958;BME280;15295;42.658;23.374;2024-03-17T02:42:11;94823.00;;;12.60;49.83
27958;BME280;15295;42.658;23.374;2024-03-17T02:44:38;94821.44;;;12.62;49.90
27958;BME280;15295;42.658;23.374;2024-03-17T02:47:05;94816.34;;;12.61;49.67
27958;BME280;15295;42.658;23.374;2024-03-17T02:49:34;94813.66;;;12.57;49.80
27958;BME280;15295;42.658;23.374;2024-03-17T02:52:05;94811.28;;;12.56;49.72
27958;BME280;15295;42.658;23.374;2024-03-17T02:54:32;94816.03;;;12.52;49.75
27958;BME280;15295;42.658;23.374;2024-03-17T02:57:06;94816.06;;;12.48;49.90
27958;BME280;15295;42.658;23.374;2024-03-17T02:59:33;94797.34;;;12.39;50.12
27958;BME280;15295;42.658;23.374;2024-03-17T03:01:59;94818.44;;;12.43;50.16
27958;BME280;15295;42.658;23.374;2024-03-17T03:04:26;94803.66;;;12.33;50.43
27958;BME280;15295;42.658;23.374;2024-03-17T03:06:51;94811.09;;;12.32;50.71
27958;BME280;15295;42.658;23.374;2024-03-17T03:09:17;94800.53;;;12.27;50.83
27958;BME280;15295;42.658;23.374;2024-03-17T03:11:51;94808.78;;;12.24;51.02
27958;BME280;15295;42.658;23.374;2024-03-17T03:14:17;94817.81;;;12.24;51.15
27958;BME280;15295;42.658;23.374;2024-03-17T03:16:49;94806.06;;;12.24;51.04
27958;BME280;15295;42.658;23.374;2024-03-17T03:19:16;94797.88;;;12.20;50.99
27958;BME280;15295;42.658;23.374;2024-03-17T03:21:42;94806.09;;;12.20;50.89
27958;BME280;15295;42.658;23.374;2024-03-17T03:24:07;94806.03;;;12.27;50.81
27958;BME280;15295;42.658;23.374;2024-03-17T03:26:33;94795.09;;;12.24;50.79
27958;BME280;15295;42.658;23.374;2024-03-17T03:28:59;94806.00;;;12.31;50.65
27958;BME280;15295;42.658;23.374;2024-03-17T03:31:25;94802.09;;;12.28;50.75
27958;BME280;15295;42.658;23.374;2024-03-17T03:33:50;94813.81;;;12.32;50.71
27958;BME280;15295;42.658;23.374;2024-03-17T03:36:16;94797.03;;;12.23;50.48
27958;BME280;15295;42.658;23.374;2024-03-17T03:38:52;94823.25;;;12.28;50.75
27958;BME280;15295;42.658;23.374;2024-03-17T03:41:18;94809.59;;;12.24;50.71
27958;BME280;15295;42.658;23.374;2024-03-17T03:43:44;94819.34;;;12.25;50.58
27958;BME280;15295;42.658;23.374;2024-03-17T03:46:12;94812.78;;;12.16;50.61
27958;BME280;15295;42.658;23.374;2024-03-17T03:48:45;94818.59;;;12.21;50.81
27958;BME280;15295;42.658;23.374;2024-03-17T03:51:11;94828.38;;;12.22;50.78
27958;BME280;15295;42.658;23.374;2024-03-17T03:53:37;94806.97;;;12.03;50.92
27958;BME280;15295;42.658;23.374;2024-03-17T03:56:05;94829.63;;;12.14;50.90
27958;BME280;15295;42.658;23.374;2024-03-17T03:58:36;94836.66;;;12.12;50.97
27958;BME280;15295;42.658;23.374;2024-03-17T04:03:37;94830.03;;;12.09;51.14
27958;BME280;15295;42.658;23.374;2024-03-17T04:06:08;94838.22;;;12.13;51.00
27958;BME280;15295;42.658;23.374;2024-03-17T04:08:39;94827.28;;;12.09;50.80
27958;BME280;15295;42.658;23.374;2024-03-17T04:11:08;94838.25;;;12.09;50.96
27958;BME280;15295;42.658;23.374;2024-03-17T04:13:34;94844.88;;;12.08;50.97
27958;BME280;15295;42.658;23.374;2024-03-17T04:16:00;94830.47;;;12.01;50.92
27958;BME280;15295;42.658;23.374;2024-03-17T04:18:28;94837.13;;;11.96;51.06
27958;BME280;15295;42.658;23.374;2024-03-17T04:21:02;94828.50;;;11.98;50.92
27958;BME280;15295;42.658;23.374;2024-03-17T04:23:29;94844.16;;;12.01;50.81
27958;BME280;15295;42.658;23.374;2024-03-17T04:25:57;94857.06;;;12.04;50.83
27958;BME280;15295;42.658;23.374;2024-03-17T04:28:23;94854.72;;;12.02;50.83
27958;BME280;15295;42.658;23.374;2024-03-17T04:30:49;94862.53;;;12.07;50.82
27958;BME280;15295;42.658;23.374;2024-03-17T04:33:15;94860.19;;;12.06;50.53
27958;BME280;15295;42.658;23.374;2024-03-17T04:35:42;94862.56;;;12.04;50.74
27958;BME280;15295;42.658;23.374;2024-03-17T04:38:07;94861.00;;;11.99;50.87
27958;BME280;15295;42.658;23.374;2024-03-17T04:40:35;94877.41;;;12.03;50.85
27958;BME280;15295;42.658;23.374;2024-03-17T04:43:00;94874.66;;;12.06;50.83
27958;BME280;15295;42.658;23.374;2024-03-17T04:45:26;94874.25;;;12.08;50.90
27958;BME280;15295;42.658;23.374;2024-03-17T04:47:52;94877.41;;;12.03;50.89
27958;BME280;15295;42.658;23.374;2024-03-17T04:50:18;94866.47;;;11.96;50.85
27958;BME280;15295;42.658;23.374;2024-03-17T04:52:44;94874.31;;;11.97;50.86
27958;BME280;15295;42.658;23.374;2024-03-17T04:55:09;94881.34;;;11.98;50.87
27958;BME280;15295;42.658;23.374;2024-03-17T04:57:35;94885.28;;;11.97;50.86
27958;BME280;15295;42.658;23.374;2024-03-17T05:00:03;94883.34;;;11.87;50.83
27958;BME280;15295;42.658;23.374;2024-03-17T05:02:37;94876.69;;;11.85;50.57
27958;BME280;15295;42.658;23.374;2024-03-17T05:05:03;94897.41;;;11.93;50.82
27958;BME280;15295;42.658;23.374;2024-03-17T05:07:30;94882.59;;;11.80;50.73
27958;BME280;15295;42.658;23.374;2024-03-17T05:09:56;94903.31;;;11.88;50.47
27958;BME280;15295;42.658;23.374;2024-03-17T05:12:22;94880.28;;;11.71;50.58
27958;BME280;15295;42.658;23.374;2024-03-17T05:14:48;94905.69;;;11.82;50.49
27958;BME280;15295;42.658;23.374;2024-03-17T05:17:13;94910.78;;;11.80;50.53
27958;BME280;15295;42.658;23.374;2024-03-17T05:19:39;94911.16;;;11.82;50.44
27958;BME280;15295;42.658;23.374;2024-03-17T05:22:04;94904.50;;;11.80;50.54
27958;BME280;15295;42.658;23.374;2024-03-17T05:24:29;94906.44;;;11.83;50.54
27958;BME280;15295;42.658;23.374;2024-03-17T05:26:55;94916.97;;;11.91;50.56
27958;BME280;15295;42.658;23.374;2024-03-17T05:29:21;94905.69;;;11.82;50.46
27958;BME280;15295;42.658;23.374;2024-03-17T05:31:48;94919.72;;;11.88;50.78
27958;BME280;15295;42.658;23.374;2024-03-17T05:34:13;94897.47;;;11.79;50.71
27958;BME280;15295;42.658;23.374;2024-03-17T05:36:39;94908.31;;;12.00;50.67
27958;BME280;15295;42.658;23.374;2024-03-17T05:39:17;94914.16;;;12.12;50.94
27958;BME280;15295;42.658;23.374;2024-03-17T05:41:42;94921.09;;;12.27;50.97
27958;BME280;15295;42.658;23.374;2024-03-17T05:44:09;94922.22;;;12.40;50.91
27958;BME280;15295;42.658;23.374;2024-03-17T05:46:34;94926.50;;;12.45;50.84
27958;BME280;15295;42.658;23.374;2024-03-17T05:49:07;94906.53;;;12.48;50.71
27958;BME280;15295;42.658;23.374;2024-03-17T05:51:37;94909.56;;;12.61;50.68
27958;BME280;15295;42.658;23.374;2024-03-17T05:54:04;94883.38;;;12.53;50.42
27958;BME280;15295;42.658;23.374;2024-03-17T05:56:31;94900.09;;;12.72;50.17
27958;BME280;15295;42.658;23.374;2024-03-17T05:58:58;94912.91;;;12.86;49.94
27958;BME280;15295;42.658;23.374;2024-03-17T06:01:24;94922.25;;;12.92;49.89
27958;BME280;15295;42.658;23.374;2024-03-17T06:03:49;94914.75;;;13.03;49.85
27958;BME280;15295;42.658;23.374;2024-03-17T06:06:16;94914.34;;;13.08;49.88
27958;BME280;15295;42.658;23.374;2024-03-17T06:08:42;94925.66;;;13.17;49.66
27958;BME280;15295;42.658;23.374;2024-03-17T06:11:07;94924.41;;;13.22;49.58
27958;BME280;15295;42.658;23.374;2024-03-17T06:13:33;94923.13;;;13.33;49.40
27958;BME280;15295;42.658;23.374;2024-03-17T06:15:59;94929.34;;;13.41;49.16
27958;BME280;15295;42.658;23.374;2024-03-17T06:18:27;94926.59;;;13.41;49.44
27958;BME280;15295;42.658;23.374;2024-03-17T06:20:53;94930.84;;;13.49;49.23
27958;BME280;15295;42.658;23.374;2024-03-17T06:23:19;94929.56;;;13.57;49.84
27958;BME280;15295;42.658;23.374;2024-03-17T06:25:46;94935.84;;;13.57;49.57
27958;BME280;15295;42.658;23.374;2024-03-17T06:28:14;94930.78;;;13.52;48.84
27958;BME280;15295;42.658;23.374;2024-03-17T06:30:45;94937.38;;;13.62;48.89
27958;BME280;15295;42.658;23.374;2024-03-17T06:33:15;94942.72;;;13.76;48.69
27958;BME280;15295;42.658;23.374;2024-03-17T06:35:41;94944.84;;;13.95;48.32
27958;BME280;15295;42.658;23.374;2024-03-17T06:38:06;94948.09;;;14.20;48.43
27958;BME280;15295;42.658;23.374;2024-03-17T06:40:36;94949.00;;;14.44;47.86
27958;BME280;15295;42.658;23.374;2024-03-17T06:43:02;94953.50;;;14.61;47.10
27958;BME280;15295;42.658;23.374;2024-03-17T06:45:28;94954.03;;;14.79;46.77
27958;BME280;15295;42.658;23.374;2024-03-17T06:47:53;94960.00;;;15.01;46.09
27958;BME280;15295;42.658;23.374;2024-03-17T06:50:20;94964.66;;;15.04;45.78
27958;BME280;15295;42.658;23.374;2024-03-17T06:52:46;94955.94;;;15.09;45.64
27958;BME280;15295;42.658;23.374;2024-03-17T06:55:12;94961.84;;;15.34;45.56
27958;BME280;15295;42.658;23.374;2024-03-17T06:57:38;94951.00;;;15.50;44.50
27958;BME280;15295;42.658;23.374;2024-03-17T07:00:07;94960.78;;;15.51;43.88
27958;BME280;15295;42.658;23.374;2024-03-17T07:02:38;94953.03;;;15.46;44.45
27958;BME280;15295;42.658;23.374;2024-03-17T07:05:04;94961.13;;;15.76;43.68
27958;BME280;15295;42.658;23.374;2024-03-17T07:07:30;94953.06;;;15.66;43.56
27958;BME280;15295;42.658;23.374;2024-03-17T07:09:55;94952.31;;;15.85;43.88
27958;BME280;15295;42.658;23.374;2024-03-17T07:12:21;94955.06;;;16.08;43.42
27958;BME280;15295;42.658;23.374;2024-03-17T07:14:50;94952.22;;;16.31;43.06
27958;BME280;15295;42.658;23.374;2024-03-17T07:17:15;94956.41;;;16.59;42.42
27958;BME280;15295;42.658;23.374;2024-03-17T07:19:41;94956.91;;;16.89;41.71
27958;BME280;15295;42.658;23.374;2024-03-17T07:22:06;94941.22;;;17.03;41.49
27958;BME280;15295;42.658;23.374;2024-03-17T07:24:33;94956.44;;;17.27;41.34
27958;BME280;15295;42.658;23.374;2024-03-17T07:26:58;94951.28;;;17.45;40.59
27958;BME280;15295;42.658;23.374;2024-03-17T07:29:24;94951.19;;;17.64;40.11
27958;BME280;15295;42.658;23.374;2024-03-17T07:31:50;94958.19;;;17.85;39.40
27958;BME280;15295;42.658;23.374;2024-03-17T07:34:16;94947.88;;;17.86;38.85
27958;BME280;15295;42.658;23.374;2024-03-17T07:36:41;94947.63;;;17.96;38.83
27958;BME280;15295;42.658;23.374;2024-03-17T07:39:07;94961.69;;;18.02;38.56
27958;BME280;15295;42.658;23.374;2024-03-17T07:41:33;94945.91;;;17.86;38.61
27958;BME280;15295;42.658;23.374;2024-03-17T07:43:58;94954.50;;;18.04;38.80
27958;BME280;15295;42.658;23.374;2024-03-17T07:46:24;94949.03;;;18.17;38.52
27958;BME280;15295;42.658;23.374;2024-03-17T07:48:49;94951.06;;;18.00;38.24
27958;BME280;15295;42.658;23.374;2024-03-17T07:51:17;94948.19;;;18.04;38.44
27958;BME280;15295;42.658;23.374;2024-03-17T07:53:44;94960.63;;;18.12;37.87
27958;BME280;15295;42.658;23.374;2024-03-17T07:56:17;94963.50;;;18.08;38.18
27958;BME280;15295;42.658;23.374;2024-03-17T07:58:44;94954.34;;;17.95;37.94
27958;BME280;15295;42.658;23.374;2024-03-17T08:01:12;94953.34;;;17.89;38.23
27958;BME280;15295;42.658;23.374;2024-03-17T08:03:39;94953.59;;;17.79;38.47
27958;BME280;15295;42.658;23.374;2024-03-17T08:06:08;94954.41;;;17.79;38.57
27958;BME280;15295;42.658;23.374;2024-03-17T08:08:36;94944.81;;;17.67;38.21
27958;BME280;15295;42.658;23.374;2024-03-17T08:11:03;94952.25;;;17.70;38.57
27958;BME280;15295;42.658;23.374;2024-03-17T08:16:20;94958.53;;;17.87;38.18
27958;BME280;15295;42.658;23.374;2024-03-17T08:21:23;94956.63;;;17.84;38.11
27958;BME280;15295;42.658;23.374;2024-03-17T08:26:26;94932.28;;;17.79;37.97
27958;BME280;15295;42.658;23.374;2024-03-17T08:28:53;94944.94;;;17.93;37.41
27958;BME280;15295;42.658;23.374;2024-03-17T08:33:54;94929.81;;;17.97;37.05
27958;BME280;15295;42.658;23.374;2024-03-17T08:36:19;94914.91;;;17.79;37.19
27958;BME280;15295;42.658;23.374;2024-03-17T08:41:28;94917.25;;;18.09;37.00
27958;BME280;15295;42.658;23.374;2024-03-17T08:53:10;94933.50;;;19.40;35.51
27958;BME280;15295;42.658;23.374;2024-03-17T08:55:39;94915.81;;;19.37;35.23
27958;BME280;15295;42.658;23.374;2024-03-17T09:00:38;94934.50;;;19.58;34.71
27958;BME280;15295;42.658;23.374;2024-03-17T09:03:09;94927.16;;;19.64;34.58
27958;BME280;15295;42.658;23.374;2024-03-17T09:05:42;94924.22;;;19.80;34.24
27958;BME280;15295;42.658;23.374;2024-03-17T09:10:41;94928.78;;;20.21;33.87
27958;BME280;15295;42.658;23.374;2024-03-17T09:13:07;94911.25;;;20.46;33.87
27958;BME280;15295;42.658;23.374;2024-03-17T09:15:41;94919.31;;;20.84;32.89
27958;BME280;15295;42.658;23.374;2024-03-17T09:18:06;94898.16;;;20.77;33.21
27958;BME280;15295;42.658;23.374;2024-03-17T09:20:32;94912.38;;;21.10;32.33
27958;BME280;15295;42.658;23.374;2024-03-17T09:22:57;94912.78;;;21.39;33.85
27958;BME280;15295;42.658;23.374;2024-03-17T09:25:24;94909.47;;;21.71;34.77
27958;BME280;15295;42.658;23.374;2024-03-17T09:27:50;94907.06;;;22.09;33.51
27958;BME280;15295;42.658;23.374;2024-03-17T09:30:22;94901.34;;;22.04;32.76
27958;BME280;15295;42.658;23.374;2024-03-17T09:32:52;94880.94;;;21.89;31.99
27958;BME280;15295;42.658;23.374;2024-03-17T09:40:36;94867.94;;;21.95;31.16
27958;BME280;15295;42.658;23.374;2024-03-17T09:43:08;94886.38;;;22.19;31.06
27958;BME280;15295;42.658;23.374;2024-03-17T09:45:37;94867.00;;;22.16;30.70
27958;BME280;15295;42.658;23.374;2024-03-17T09:48:03;94885.09;;;22.39;31.12
27958;BME280;15295;42.658;23.374;2024-03-17T09:50:28;94861.09;;;22.59;30.21
27958;BME280;15295;42.658;23.374;2024-03-17T09:52:56;94880.31;;;23.08;29.28
27958;BME280;15295;42.658;23.374;2024-03-17T09:55:23;94882.75;;;23.15;28.36
27958;BME280;15295;42.658;23.374;2024-03-17T09:57:52;94884.84;;;22.96;28.32
27958;BME280;15295;42.658;23.374;2024-03-17T10:00:19;94866.34;;;22.48;28.46
27958;BME280;15295;42.658;23.374;2024-03-17T10:02:49;94863.28;;;22.37;27.89
27958;BME280;15295;42.658;23.374;2024-03-17T10:05:28;94864.81;;;22.47;27.69
27958;BME280;15295;42.658;23.374;2024-03-17T10:07:54;94851.34;;;22.46;27.43
27958;BME280;15295;42.658;23.374;2024-03-17T10:10:24;94825.53;;;22.45;27.10
27958;BME280;15295;42.658;23.374;2024-03-17T10:12:53;94884.38;;;22.98;26.13
27958;BME280;15295;42.658;23.374;2024-03-17T10:15:32;94858.59;;;22.79;26.09
27958;BME280;15295;42.658;23.374;2024-03-17T10:18:26;94820.69;;;22.55;26.44
27958;BME280;15295;42.658;23.374;2024-03-17T10:21:28;94849.16;;;22.68;25.51
27958;BME280;15295;42.658;23.374;2024-03-17T10:24:11;94843.13;;;22.69;26.26
27958;BME280;15295;42.658;23.374;2024-03-17T10:26:41;94848.75;;;22.60;25.56
27958;BME280;15295;42.658;23.374;2024-03-17T10:29:36;94889.50;;;22.90;25.38
27958;BME280;15295;42.658;23.374;2024-03-17T10:32:12;94841.25;;;22.75;25.78
27958;BME280;15295;42.658;23.374;2024-03-17T10:34:49;94824.22;;;22.73;25.97
27958;BME280;15295;42.658;23.374;2024-03-17T10:43:18;94821.59;;;22.70;26.32
27958;BME280;15295;42.658;23.374;2024-03-17T10:45:56;94852.84;;;22.83;25.60
27958;BME280;15295;42.658;23.374;2024-03-17T10:48:34;94863.78;;;22.95;26.39
27958;BME280;15295;42.658;23.374;2024-03-17T10:51:01;94832.72;;;22.79;25.96
27958;BME280;15295;42.658;23.374;2024-03-17T10:54:10;94843.47;;;22.62;26.08
27958;BME280;15295;42.658;23.374;2024-03-17T10:59:59;94817.50;;;22.29;24.03
27958;BME280;15295;42.658;23.374;2024-03-17T11:02:40;94867.56;;;22.56;24.70
27958;BME280;15295;42.658;23.374;2024-03-17T11:05:29;94866.22;;;22.52;24.89
27958;BME280;15295;42.658;23.374;2024-03-17T11:08:15;94846.13;;;22.20;24.48
27958;BME280;15295;42.658;23.374;2024-03-17T11:11:00;94826.22;;;22.04;24.38
27958;BME280;15295;42.658;23.374;2024-03-17T11:13:29;94864.88;;;22.11;24.87
27958;BME280;15295;42.658;23.374;2024-03-17T11:15:57;94816.91;;;21.80;24.93
27958;BME280;15295;42.658;23.374;2024-03-17T11:18:33;94816.44;;;21.81;25.33
27958;BME280;15295;42.658;23.374;2024-03-17T11:21:20;94856.34;;;22.05;26.20
27958;BME280;15295;42.658;23.374;2024-03-17T11:24:04;94800.84;;;21.57;26.20
27958;BME280;15295;42.658;23.374;2024-03-17T11:26:35;94788.94;;;21.65;26.49
27958;BME280;15295;42.658;23.374;2024-03-17T11:29:26;94832.38;;;21.81;26.15
27958;BME280;15295;42.658;23.374;2024-03-17T11:32:23;94851.06;;;21.80;26.21
27958;BME280;15295;42.658;23.374;2024-03-17T11:35:12;94803.00;;;21.62;26.45
27958;BME280;15295;42.658;23.374;2024-03-17T11:37:43;94827.25;;;21.79;26.31
27958;BME280;15295;42.658;23.374;2024-03-17T11:40:24;94795.88;;;21.51;26.69
27958;BME280;15295;42.658;23.374;2024-03-17T11:43:03;94838.59;;;21.94;26.81
27958;BME280;15295;42.658;23.374;2024-03-17T11:45:32;94812.91;;;21.90;27.54
27958;BME280;15295;42.658;23.374;2024-03-17T11:47:57;94832.09;;;22.06;27.89
27958;BME280;15295;42.658;23.374;2024-03-17T11:50:34;94830.22;;;22.03;27.09
27958;BME280;15295;42.658;23.374;2024-03-17T11:53:03;94809.69;;;21.82;26.70
27958;BME280;15295;42.658;23.374;2024-03-17T11:55:32;94770.22;;;21.47;26.23
27958;BME280;15295;42.658;23.374;2024-03-17T11:58:03;94809.19;;;21.66;26.14
27958;BME280;15295;42.658;23.374;2024-03-17T12:00:52;94797.28;;;21.65;26.25
27958;BME280;15295;42.658;23.374;2024-03-17T12:03:18;94817.56;;;21.93;26.09
27958;BME280;15295;42.658;23.374;2024-03-17T12:05:44;94799.47;;;21.97;26.35
27958;BME280;15295;42.658;23.374;2024-03-17T12:08:23;94805.78;;;22.16;26.03
27958;BME280;15295;42.658;23.374;2024-03-17T12:11:02;94746.13;;;21.99;25.55
27958;BME280;15295;42.658;23.374;2024-03-17T12:13:40;94742.72;;;22.13;25.45
27958;BME280;15295;42.658;23.374;2024-03-17T12:16:25;94750.72;;;22.20;25.71
27958;BME280;15295;42.658;23.374;2024-03-17T12:18:52;94771.06;;;22.44;25.49
27958;BME280;15295;42.658;23.374;2024-03-17T12:21:18;94808.66;;;22.90;25.44
27958;BME280;15295;42.658;23.374;2024-03-17T12:28:49;94755.84;;;22.21;25.30
27958;BME280;15295;42.658;23.374;2024-03-17T12:31:33;94799.81;;;22.50;25.40
27958;BME280;15295;42.658;23.374;2024-03-17T12:34:01;94812.66;;;22.66;25.80
27958;BME280;15295;42.658;23.374;2024-03-17T12:36:28;94821.78;;;22.66;25.87
27958;BME280;15295;42.658;23.374;2024-03-17T12:38:54;94812.50;;;22.51;26.19
27958;BME280;15295;42.658;23.374;2024-03-17T12:41:19;94806.28;;;22.56;26.71
27958;BME280;15295;42.658;23.374;2024-03-17T12:43:50;94749.41;;;22.39;26.83
27958;BME280;15295;42.658;23.374;2024-03-17T12:46:36;94750.97;;;22.40;26.80
27958;BME280;15295;42.658;23.374;2024-03-17T12:49:11;94789.47;;;22.51;27.05
27958;BME280;15295;42.658;23.374;2024-03-17T12:51:45;94807.88;;;22.48;26.83
27958;BME280;15295;42.658;23.374;2024-03-17T12:54:15;94775.81;;;22.02;27.63
27958;BME280;15295;42.658;23.374;2024-03-17T12:59:42;94743.34;;;21.90;27.86
27958;BME280;15295;42.658;23.374;2024-03-17T13:02:27;94766.19;;;22.12;27.75
27958;BME280;15295;42.658;23.374;2024-03-17T13:05:21;94796.50;;;22.28;28.13
27958;BME280;15295;42.658;23.374;2024-03-17T13:08:07;94732.22;;;21.72;28.68
27958;BME280;15295;42.658;23.374;2024-03-17T13:10:37;94795.13;;;22.05;29.45
27958;BME280;15295;42.658;23.374;2024-03-17T13:13:08;94792.66;;;22.07;29.26
27958;BME280;15295;42.658;23.374;2024-03-17T13:15:37;94795.91;;;21.88;29.48
27958;BME280;15295;42.658;23.374;2024-03-17T13:18:17;94803.63;;;21.75;29.87
27958;BME280;15295;42.658;23.374;2024-03-17T13:20:53;94755.09;;;21.48;29.78
27958;BME280;15295;42.658;23.374;2024-03-17T13:23:20;94760.81;;;21.45;29.59
27958;BME280;15295;42.658;23.374;2024-03-17T13:26:10;94802.38;;;21.48;29.92
27958;BME280;15295;42.658;23.374;2024-03-17T13:28:39;94750.13;;;21.07;30.38
27958;BME280;15295;42.658;23.374;2024-03-17T13:31:04;94737.09;;;20.86;30.33
27958;BME280;15295;42.658;23.374;2024-03-17T13:36:08;94800.75;;;21.11;30.78
27958;BME280;15295;42.658;23.374;2024-03-17T13:38:34;94801.03;;;21.04;31.26
27958;BME280;15295;42.658;23.374;2024-03-17T13:41:00;94751.84;;;20.65;31.46
27958;BME280;15295;42.658;23.374;2024-03-17T13:43:32;94741.78;;;20.58;31.75
27958;BME280;15295;42.658;23.374;2024-03-17T13:46:12;94745.34;;;20.59;31.88
27958;BME280;15295;42.658;23.374;2024-03-17T13:48:38;94792.94;;;20.88;31.75
27958;BME280;15295;42.658;23.374;2024-03-17T13:51:07;94764.63;;;20.62;31.81
27958;BME280;15295;42.658;23.374;2024-03-17T13:53:33;94792.25;;;20.66;32.25
27958;BME280;15295;42.658;23.374;2024-03-17T13:56:14;94784.75;;;20.45;32.32